createdAt,value
2023-06-29T00:00:10.100Z,15.92
2023-06-29T00:02:40.988Z,16.29
2023-06-29T00:05:10.022Z,16.44
2023-06-29T00:07:37.710Z,16.44
2023-06-29T00:10:06.217Z,16.27
2023-06-29T00:12:34.091Z,16.15
2023-06-29T00:15:01.712Z,15.99
2023-06-29T00:17:29.520Z,15.83
2023-06-29T00:19:58.357Z,15.68
2023-06-29T00:22:26.057Z,15.52
2023-06-29T00:24:58.231Z,15.76
2023-06-29T00:27:27.150Z,16.28
2023-06-29T00:29:54.838Z,16.34
2023-06-29T00:32:24.011Z,16.22
2023-06-29T00:34:51.779Z,16.11
2023-06-29T00:37:19.472Z,15.95
2023-06-29T00:39:47.192Z,15.74
2023-06-29T00:42:15.174Z,15.59
2023-06-29T00:44:42.882Z,15.46
2023-06-29T00:47:11.088Z,15.69
2023-06-29T00:49:40.097Z,16.07
2023-06-29T00:52:08.489Z,16.17
2023-06-29T00:54:36.636Z,16.08
2023-06-29T00:57:04.687Z,15.91
2023-06-29T00:59:32.512Z,15.71
2023-06-29T01:02:00.356Z,15.46
2023-06-29T01:04:28.833Z,15.36
2023-06-29T01:07:02.540Z,15.60
2023-06-29T01:09:34.737Z,15.94
2023-06-29T01:12:04.425Z,16.19
2023-06-29T01:14:34.309Z,15.96
2023-06-29T01:17:03.273Z,15.75
2023-06-29T01:19:32.928Z,15.50
2023-06-29T01:22:08.718Z,15.36
2023-06-29T01:24:41.237Z,15.52
2023-06-29T01:27:09.585Z,15.96
2023-06-29T01:29:38.173Z,15.85
2023-06-29T01:32:08.862Z,15.81
2023-06-29T01:34:38.216Z,15.63
2023-06-29T01:37:17.702Z,15.43
2023-06-29T01:40:11.472Z,15.30
2023-06-29T01:42:40.685Z,15.51
2023-06-29T01:45:11.453Z,15.83
2023-06-29T01:47:39.755Z,15.94
2023-06-29T01:50:08.064Z,15.88
2023-06-29T01:52:38.635Z,15.67
2023-06-29T01:55:06.860Z,15.55
2023-06-29T01:57:34.680Z,15.41
2023-06-29T02:00:02.444Z,15.64
2023-06-29T02:02:41.964Z,15.83
2023-06-29T02:05:10.202Z,15.95
2023-06-29T02:07:40.544Z,15.93
2023-06-29T02:10:10.480Z,15.81
2023-06-29T02:12:42.099Z,15.69
2023-06-29T02:15:14.315Z,15.52
2023-06-29T02:17:42.113Z,15.66
2023-06-29T02:20:12.713Z,15.89
2023-06-29T02:22:40.603Z,16.04
2023-06-29T02:25:11.777Z,16.06
2023-06-29T02:27:39.744Z,15.95
2023-06-29T02:30:07.900Z,15.71
2023-06-29T02:32:36.532Z,15.54
2023-06-29T02:35:04.911Z,15.81
2023-06-29T02:37:33.304Z,16.09
2023-06-29T02:40:01.172Z,16.17
2023-06-29T02:42:29.340Z,16.04
2023-06-29T02:44:57.037Z,15.98
2023-06-29T02:47:25.001Z,15.76
2023-06-29T02:49:52.703Z,15.65
2023-06-29T02:52:21.007Z,15.95
2023-06-29T02:54:50.810Z,16.22
2023-06-29T02:57:19.435Z,16.26
2023-06-29T02:59:47.262Z,16.18
2023-06-29T03:02:15.459Z,16.08
2023-06-29T03:04:43.522Z,15.89
2023-06-29T03:07:11.643Z,15.79
2023-06-29T03:09:41.790Z,16.08
2023-06-29T03:12:10.644Z,16.34
2023-06-29T03:14:38.309Z,16.51
2023-06-29T03:17:06.864Z,16.48
2023-06-29T03:19:34.591Z,16.33
2023-06-29T03:22:02.414Z,16.17
2023-06-29T03:24:30.058Z,16.03
2023-06-29T03:26:57.619Z,16.25
2023-06-29T03:29:25.664Z,16.58
2023-06-29T03:31:53.500Z,16.64
2023-06-29T03:34:21.131Z,16.63
2023-06-29T03:36:48.832Z,16.52
2023-06-29T03:39:16.997Z,16.43
2023-06-29T03:41:44.568Z,16.21
2023-06-29T03:44:12.154Z,16.34
2023-06-29T03:46:40.034Z,16.63
2023-06-29T03:49:07.644Z,16.76
2023-06-29T03:51:35.259Z,16.77
2023-06-29T03:54:03.047Z,16.69
2023-06-29T03:56:32.526Z,16.55
2023-06-29T03:59:00.468Z,16.43
2023-06-29T04:01:28.122Z,16.69
2023-06-29T04:03:56.072Z,16.98
2023-06-29T04:06:23.848Z,17.21
2023-06-29T04:08:51.585Z,17.21
2023-06-29T04:11:19.379Z,17.26
2023-06-29T04:13:47.000Z,17.25
2023-06-29T04:16:15.095Z,17.12
2023-06-29T04:18:42.918Z,17.00
2023-06-29T04:21:10.696Z,17.20
2023-06-29T04:23:38.347Z,17.61
2023-06-29T04:26:06.205Z,17.84
2023-06-29T04:28:36.043Z,17.86
2023-06-29T04:31:04.321Z,17.72
2023-06-29T04:33:32.329Z,17.61
2023-06-29T04:35:59.993Z,17.46
2023-06-29T04:38:29.120Z,17.35
2023-06-29T04:41:04.895Z,17.62
2023-06-29T04:43:33.453Z,18.00
2023-06-29T04:46:05.574Z,18.25
2023-06-29T04:48:39.024Z,18.10
2023-06-29T04:51:07.521Z,18.01
2023-06-29T04:53:36.559Z,17.90
2023-06-29T04:56:04.488Z,17.70
2023-06-29T04:58:32.087Z,17.58
2023-06-29T05:00:59.947Z,17.74
2023-06-29T05:03:31.079Z,18.13
2023-06-29T05:05:58.793Z,18.12
2023-06-29T05:08:26.762Z,17.99
2023-06-29T05:10:54.518Z,17.87
2023-06-29T05:13:22.151Z,17.79
2023-06-29T05:15:50.300Z,17.72
2023-06-29T05:18:17.936Z,17.68
2023-06-29T05:20:46.384Z,17.96
2023-06-29T05:23:14.066Z,18.36
2023-06-29T05:25:43.028Z,18.51
2023-06-29T05:28:11.067Z,18.51
2023-06-29T05:30:38.839Z,18.44
2023-06-29T05:33:06.555Z,18.41
2023-06-29T05:35:35.929Z,18.33
2023-06-29T05:38:03.777Z,18.17
2023-06-29T05:40:33.766Z,18.09
2023-06-29T05:43:01.780Z,18.37
2023-06-29T05:45:29.634Z,18.99
2023-06-29T05:47:57.362Z,19.14
2023-06-29T05:50:25.126Z,19.15
2023-06-29T05:52:53.035Z,19.16
2023-06-29T05:55:20.861Z,19.23
2023-06-29T05:57:48.596Z,19.30
2023-06-29T06:00:17.200Z,19.26
2023-06-29T06:02:46.540Z,19.19
2023-06-29T06:08:05.567Z,19.93
2023-06-29T06:10:33.359Z,20.02
2023-06-29T06:13:01.253Z,20.01
2023-06-29T06:15:28.844Z,19.92
2023-06-29T06:17:56.537Z,19.62
2023-06-29T06:20:24.496Z,19.43
2023-06-29T06:22:52.157Z,19.24
2023-06-29T06:25:19.826Z,19.05
2023-06-29T06:27:47.848Z,19.25
2023-06-29T06:30:15.798Z,19.64
2023-06-29T06:32:43.702Z,19.79
2023-06-29T06:35:12.046Z,19.79
2023-06-29T06:37:40.349Z,19.51
2023-06-29T06:40:09.179Z,19.44
2023-06-29T06:42:37.856Z,19.60
2023-06-29T06:45:07.338Z,19.66
2023-06-29T06:47:37.007Z,19.51
2023-06-29T06:50:06.472Z,19.88
2023-06-29T06:52:34.811Z,20.29
2023-06-29T06:55:03.142Z,20.52
2023-06-29T06:57:30.817Z,20.50
2023-06-29T06:59:58.518Z,20.31
2023-06-29T07:02:26.938Z,20.07
2023-06-29T07:04:54.630Z,19.94
2023-06-29T07:07:22.407Z,19.82
2023-06-29T07:09:50.107Z,19.76
2023-06-29T07:12:19.425Z,19.88
2023-06-29T07:14:47.545Z,20.54
2023-06-29T07:17:15.137Z,21.45
2023-06-29T07:24:45.599Z,22.46
2023-06-29T07:27:13.184Z,22.02
2023-06-29T07:29:43.985Z,21.57
2023-06-29T07:32:12.081Z,21.30
2023-06-29T07:34:39.830Z,21.06
2023-06-29T07:37:07.628Z,20.95
2023-06-29T07:39:35.376Z,20.88
2023-06-29T07:42:03.065Z,20.70
2023-06-29T07:44:30.907Z,20.63
2023-06-29T07:46:59.024Z,20.80
2023-06-29T07:49:26.619Z,21.24
2023-06-29T07:51:54.477Z,21.95
2023-06-29T07:54:22.278Z,22.80
2023-06-29T07:59:20.550Z,24.04
2023-06-29T08:01:51.801Z,24.11
2023-06-29T08:06:45.571Z,23.97
2023-06-29T08:07:10.086Z,23.71
2023-06-29T08:09:38.991Z,23.40
2023-06-29T08:12:07.402Z,23.12
2023-06-29T08:14:36.686Z,23.00
2023-06-29T08:17:04.874Z,23.15
2023-06-29T08:19:33.915Z,23.12
2023-06-29T08:22:01.816Z,23.08
2023-06-29T08:24:29.515Z,22.99
2023-06-29T08:26:57.280Z,22.80
2023-06-29T08:29:26.040Z,22.54
2023-06-29T08:31:53.782Z,22.38
2023-06-29T08:34:21.748Z,22.49
2023-06-29T08:36:51.542Z,22.25
2023-06-29T08:39:20.400Z,21.98
2023-06-29T08:41:48.602Z,21.91
2023-06-29T08:44:16.603Z,22.13
2023-06-29T08:46:47.485Z,22.26
2023-06-29T08:49:16.363Z,22.37
2023-06-29T08:51:47.703Z,22.54
2023-06-29T08:54:16.799Z,22.74
2023-06-29T08:56:46.402Z,22.92
2023-06-29T08:59:14.657Z,22.80
2023-06-29T09:01:42.482Z,22.75
2023-06-29T09:04:10.755Z,22.77
2023-06-29T09:06:39.124Z,22.70
2023-06-29T09:09:07.551Z,22.82
2023-06-29T09:11:37.408Z,22.94
2023-06-29T09:14:09.029Z,22.99
2023-06-29T09:16:37.594Z,23.10
2023-06-29T09:19:05.264Z,23.15
2023-06-29T09:21:34.919Z,23.08
2023-06-29T09:24:04.819Z,23.31
2023-06-29T09:26:32.586Z,23.36
2023-06-29T09:29:01.377Z,23.27
2023-06-29T09:31:30.906Z,23.19
2023-06-29T09:34:21.402Z,23.12
2023-06-29T09:36:50.008Z,23.03
2023-06-29T09:39:23.915Z,23.11
2023-06-29T09:41:53.457Z,23.18
2023-06-29T09:44:23.729Z,23.18
2023-06-29T09:49:25.462Z,23.49
2023-06-29T09:52:05.155Z,23.54
2023-06-29T09:54:36.494Z,23.37
2023-06-29T09:57:04.951Z,23.05
2023-06-29T09:59:32.883Z,22.66
2023-06-29T10:02:01.039Z,22.44
2023-06-29T10:04:29.012Z,22.24
2023-06-29T10:07:10.441Z,22.09
2023-06-29T10:09:40.604Z,21.88
2023-06-29T10:12:13.353Z,21.82
2023-06-29T10:14:44.744Z,21.76
2023-06-29T10:17:29.655Z,21.84
2023-06-29T10:20:00.866Z,21.98
2023-06-29T10:22:30.363Z,22.03
2023-06-29T10:25:02.342Z,22.18
2023-06-29T10:27:32.034Z,22.36
2023-06-29T10:30:04.470Z,22.45
2023-06-29T10:32:37.601Z,22.51
2023-06-29T10:35:15.263Z,22.51
2023-06-29T10:37:47.292Z,22.68
2023-06-29T10:40:19.644Z,22.86
2023-06-29T10:42:47.192Z,23.01
2023-06-29T10:45:21.978Z,22.98
2023-06-29T10:47:59.008Z,22.96
2023-06-29T10:50:31.875Z,22.86
2023-06-29T10:53:01.281Z,22.97
2023-06-29T10:55:40.158Z,23.21
2023-06-29T10:58:21.111Z,23.41
2023-06-29T11:00:50.957Z,23.59
2023-06-29T11:03:20.489Z,23.59
2023-06-29T11:05:50.272Z,23.42
2023-06-29T11:08:21.018Z,23.21
2023-06-29T11:10:49.340Z,22.83
2023-06-29T11:13:19.928Z,22.41
2023-06-29T11:15:55.898Z,22.20
2023-06-29T11:18:23.948Z,21.86
2023-06-29T11:20:51.688Z,21.70
2023-06-29T11:23:19.519Z,21.64
2023-06-29T11:25:47.183Z,21.66
2023-06-29T11:28:18.048Z,21.83
2023-06-29T11:30:48.737Z,22.20
2023-06-29T11:33:33.559Z,22.56
2023-06-29T11:36:07.649Z,22.93
2023-06-29T11:38:35.617Z,23.08
2023-06-29T11:41:05.338Z,23.17
2023-06-29T11:43:33.567Z,23.48
2023-06-29T11:46:01.568Z,23.80
2023-06-29T11:48:31.513Z,23.91
2023-06-29T11:51:01.660Z,23.76
2023-06-29T11:53:30.453Z,23.59
2023-06-29T11:55:58.901Z,23.51
2023-06-29T11:58:34.366Z,23.37
2023-06-29T12:01:02.360Z,22.67
2023-06-29T12:03:30.333Z,21.66
2023-06-29T12:06:01.404Z,20.92
2023-06-29T12:08:41.054Z,20.59
2023-06-29T12:11:16.894Z,20.39
2023-06-29T12:13:50.113Z,20.30
2023-06-29T12:18:50.774Z,20.36
2023-06-29T12:21:20.758Z,20.46
2023-06-29T12:23:49.333Z,20.49
2023-06-29T12:26:17.528Z,20.53
2023-06-29T12:28:45.226Z,20.61
2023-06-29T12:31:13.427Z,20.69
2023-06-29T12:33:41.397Z,20.76
2023-06-29T12:36:09.128Z,20.80
2023-06-29T12:38:36.762Z,20.93
2023-06-29T12:41:04.772Z,21.13
2023-06-29T12:43:32.359Z,21.65
2023-06-29T12:46:00.235Z,22.31
2023-06-29T12:48:28.434Z,22.76
2023-06-29T12:51:01.293Z,22.85
2023-06-29T12:53:30.486Z,22.92
2023-06-29T12:55:58.109Z,22.96
2023-06-29T12:58:26.425Z,23.01
2023-06-29T13:00:54.203Z,23.03
2023-06-29T13:03:22.461Z,22.84
2023-06-29T13:05:53.637Z,22.60
2023-06-29T13:08:21.641Z,22.49
2023-06-29T13:10:49.489Z,22.48
2023-06-29T13:13:17.196Z,22.57
2023-06-29T13:15:46.500Z,22.57
2023-06-29T13:18:14.970Z,22.55
2023-06-29T13:20:42.744Z,22.48
2023-06-29T13:23:10.468Z,22.43
2023-06-29T13:25:38.630Z,22.40
2023-06-29T13:28:06.377Z,22.37
2023-06-29T13:30:34.084Z,22.38
2023-06-29T13:33:01.962Z,22.37
2023-06-29T13:35:29.620Z,22.29
2023-06-29T13:37:57.254Z,22.25
2023-06-29T13:40:26.142Z,22.33
2023-06-29T13:42:53.779Z,22.33
2023-06-29T13:45:21.537Z,22.27
2023-06-29T13:47:49.361Z,22.27
2023-06-29T13:50:20.380Z,22.22
2023-06-29T13:52:50.851Z,22.14
2023-06-29T13:55:18.929Z,22.10
2023-06-29T13:57:46.764Z,22.03
2023-06-29T14:00:15.333Z,21.88
2023-06-29T14:02:43.001Z,21.79
2023-06-29T14:05:10.745Z,21.73
2023-06-29T14:07:38.611Z,21.71
2023-06-29T14:10:24.887Z,21.72
2023-06-29T14:12:52.668Z,21.77
2023-06-29T14:15:20.314Z,21.85
2023-06-29T14:17:48.138Z,21.94
2023-06-29T14:20:16.141Z,21.99
2023-06-29T14:22:43.742Z,22.02
2023-06-29T14:25:11.634Z,22.06
2023-06-29T14:27:39.300Z,22.05
2023-06-29T14:30:07.859Z,22.02
2023-06-29T14:32:35.714Z,22.08
2023-06-29T14:35:03.729Z,22.16
2023-06-29T14:37:32.707Z,22.23
2023-06-29T14:40:02.483Z,22.40
2023-06-29T14:42:34.239Z,22.53
2023-06-29T14:45:01.800Z,22.49
2023-06-29T14:47:30.608Z,22.44
2023-06-29T14:49:58.251Z,22.48
2023-06-29T14:52:26.379Z,22.52
2023-06-29T14:54:54.132Z,22.48
2023-06-29T14:57:23.763Z,22.38
2023-06-29T14:59:51.592Z,22.24
2023-06-29T15:02:19.285Z,22.03
2023-06-29T15:04:47.034Z,21.80
2023-06-29T15:07:14.689Z,21.54
2023-06-29T15:09:42.360Z,21.41
2023-06-29T15:12:10.685Z,21.37
2023-06-29T15:14:38.360Z,21.34
2023-06-29T15:17:06.390Z,21.35
2023-06-29T15:19:34.293Z,21.34
2023-06-29T15:22:02.184Z,21.30
2023-06-29T15:24:29.924Z,21.24
2023-06-29T15:26:57.556Z,21.28
2023-06-29T15:29:26.330Z,21.31
2023-06-29T15:31:54.234Z,21.32
2023-06-29T15:34:22.301Z,21.25
2023-06-29T15:36:49.950Z,21.13
2023-06-29T15:39:17.849Z,21.00
2023-06-29T15:41:51.038Z,20.79
2023-06-29T15:44:19.319Z,20.53
2023-06-29T15:46:54.089Z,20.42
2023-06-29T15:49:22.773Z,20.33
2023-06-29T15:51:51.259Z,20.24
2023-06-29T15:54:19.109Z,20.20
2023-06-29T15:56:46.756Z,20.18
2023-06-29T15:59:14.720Z,20.16
2023-06-29T16:01:42.426Z,20.07
2023-06-29T16:04:10.173Z,19.97
2023-06-29T16:06:38.252Z,19.85
2023-06-29T16:09:05.863Z,19.74
2023-06-29T16:11:33.530Z,19.95
2023-06-29T16:14:01.663Z,20.28
2023-06-29T16:16:29.534Z,20.56
2023-06-29T16:18:57.728Z,20.69
2023-06-29T16:21:28.762Z,20.55
2023-06-29T16:23:56.391Z,20.32
2023-06-29T16:26:24.062Z,20.00
2023-06-29T16:28:51.983Z,19.69
2023-06-29T16:31:19.773Z,19.41
2023-06-29T16:33:47.615Z,19.15
2023-06-29T16:36:15.339Z,18.90
2023-06-29T16:38:43.097Z,18.62
2023-06-29T16:41:11.875Z,18.84
2023-06-29T16:43:40.274Z,19.20
2023-06-29T16:46:07.962Z,19.39
2023-06-29T16:48:35.931Z,19.48
2023-06-29T16:51:03.744Z,19.53
2023-06-29T16:53:31.364Z,19.47
2023-06-29T16:55:59.139Z,19.32
2023-06-29T16:58:27.888Z,19.12
2023-06-29T17:00:55.562Z,18.90
2023-06-29T17:03:23.392Z,18.73
2023-06-29T17:05:51.489Z,18.51
2023-06-29T17:08:19.077Z,18.27
2023-06-29T17:10:47.016Z,18.28
2023-06-29T17:13:14.734Z,18.60
2023-06-29T17:15:42.518Z,18.67
2023-06-29T17:18:11.643Z,18.47
2023-06-29T17:20:39.441Z,18.34
2023-06-29T17:23:07.011Z,18.18
2023-06-29T17:25:34.747Z,18.04
2023-06-29T17:28:02.359Z,17.88
2023-06-29T17:30:29.955Z,17.78
2023-06-29T17:32:57.974Z,17.72
2023-06-29T17:35:26.025Z,18.00
2023-06-29T17:37:53.633Z,18.36
2023-06-29T17:40:21.634Z,18.52
2023-06-29T17:42:49.437Z,18.43
2023-06-29T17:45:19.894Z,18.25
2023-06-29T17:47:47.755Z,18.00
2023-06-29T17:50:15.991Z,17.80
2023-06-29T17:52:45.661Z,17.55
2023-06-29T17:55:13.367Z,17.35
2023-06-29T17:57:43.106Z,17.53
2023-06-29T18:00:11.118Z,17.85
2023-06-29T18:02:39.407Z,17.91
2023-06-29T18:05:07.435Z,17.79
2023-06-29T18:07:35.332Z,17.58
2023-06-29T18:10:08.421Z,17.43
2023-06-29T18:12:39.878Z,17.19
2023-06-29T18:15:08.357Z,17.02
2023-06-29T18:17:36.298Z,16.92
2023-06-29T18:20:04.849Z,17.16
2023-06-29T18:22:32.567Z,17.62
2023-06-29T18:25:00.373Z,17.76
2023-06-29T18:27:29.540Z,17.75
2023-06-29T18:29:58.504Z,17.68
2023-06-29T18:32:26.525Z,17.54
2023-06-29T18:34:54.221Z,17.38
2023-06-29T18:37:21.885Z,17.19
2023-06-29T18:39:49.650Z,17.03
2023-06-29T18:42:19.224Z,17.15
2023-06-29T18:44:46.831Z,17.53
2023-06-29T18:47:15.236Z,17.57
2023-06-29T18:49:52.096Z,17.48
2023-06-29T18:52:21.472Z,17.31
2023-06-29T18:54:52.806Z,17.11
2023-06-29T18:57:20.670Z,16.94
2023-06-29T18:59:48.951Z,16.78
2023-06-29T19:02:16.758Z,16.90
2023-06-29T19:04:44.431Z,17.20
2023-06-29T19:07:16.306Z,17.34
2023-06-29T19:09:44.905Z,17.27
2023-06-29T19:12:13.682Z,17.08
2023-06-29T19:14:41.585Z,16.87
2023-06-29T19:17:09.543Z,16.71
2023-06-29T19:19:37.515Z,16.54
2023-06-29T19:22:05.137Z,16.74
2023-06-29T19:24:33.174Z,17.12
2023-06-29T19:27:00.904Z,17.28
2023-06-29T19:29:28.650Z,17.31
2023-06-29T19:31:56.514Z,17.28
2023-06-29T19:34:24.456Z,17.17
2023-06-29T19:36:52.055Z,17.06
2023-06-29T19:39:20.553Z,16.98
2023-06-29T19:41:48.243Z,17.18
2023-06-29T19:44:15.866Z,17.50
2023-06-29T19:46:45.500Z,17.68
2023-06-29T19:49:13.642Z,17.67
2023-06-29T19:51:41.703Z,17.55
2023-06-29T19:54:09.944Z,17.45
2023-06-29T19:56:37.610Z,17.32
2023-06-29T19:59:05.286Z,17.19
2023-06-29T20:01:33.289Z,17.32
2023-06-29T20:04:01.154Z,17.60
2023-06-29T20:06:29.324Z,17.71
2023-06-29T20:08:57.352Z,17.70
2023-06-29T20:11:25.252Z,17.55
2023-06-29T20:13:52.892Z,17.32
2023-06-29T20:16:20.892Z,17.18
2023-06-29T20:18:48.712Z,17.33
2023-06-29T20:21:16.372Z,17.69
2023-06-29T20:23:44.491Z,17.84
2023-06-29T20:26:12.108Z,17.84
2023-06-29T20:28:39.688Z,17.70
2023-06-29T20:31:07.641Z,17.59
2023-06-29T20:33:35.481Z,17.48
2023-06-29T20:36:03.533Z,17.68
2023-06-29T20:38:31.279Z,18.07
2023-06-29T20:40:59.081Z,18.19
2023-06-29T20:43:26.943Z,18.12
2023-06-29T20:45:55.026Z,17.97
2023-06-29T20:48:22.751Z,17.80
2023-06-29T20:51:00.635Z,17.63
2023-06-29T20:53:38.969Z,17.49
2023-06-29T20:56:06.657Z,17.82
2023-06-29T20:58:35.679Z,18.09
2023-06-29T21:01:07.040Z,18.22
2023-06-29T21:03:35.265Z,18.16
2023-06-29T21:06:03.379Z,17.97
2023-06-29T21:08:31.548Z,17.81
2023-06-29T21:10:59.274Z,17.64
2023-06-29T21:13:29.327Z,17.48
2023-06-29T21:15:57.510Z,17.61
2023-06-29T21:18:25.673Z,17.88
2023-06-29T21:20:53.641Z,17.96
2023-06-29T21:23:21.821Z,17.91
2023-06-29T21:25:49.830Z,17.71
2023-06-29T21:28:18.293Z,17.48
2023-06-29T21:30:46.567Z,17.23
2023-06-29T21:33:15.509Z,17.01
2023-06-29T21:35:45.364Z,16.80
2023-06-29T21:38:13.868Z,16.91
2023-06-29T21:40:41.488Z,17.18
2023-06-29T21:43:09.298Z,17.25
2023-06-29T21:45:37.044Z,17.18
2023-06-29T21:48:05.103Z,17.03
2023-06-29T21:50:34.989Z,16.80
2023-06-29T21:53:03.562Z,16.62
2023-06-29T21:55:31.364Z,16.43
2023-06-29T21:57:59.224Z,16.50
2023-06-29T22:00:27.057Z,16.77
2023-06-29T22:02:56.538Z,16.95
2023-06-29T22:05:24.957Z,16.88
2023-06-29T22:07:52.639Z,16.72
2023-06-29T22:10:20.553Z,16.53
2023-06-29T22:12:49.716Z,16.30
2023-06-29T22:15:24.473Z,16.16
2023-06-29T22:17:57.399Z,16.26
2023-06-29T22:20:26.069Z,16.59
2023-06-29T22:22:57.466Z,16.60
2023-06-29T22:25:26.452Z,16.47
2023-06-29T22:27:55.364Z,16.32
2023-06-29T22:30:23.347Z,16.13
2023-06-29T22:32:52.815Z,15.91
2023-06-29T22:35:21.548Z,15.77
2023-06-29T22:37:49.268Z,15.95
2023-06-29T22:40:17.112Z,16.20
2023-06-29T22:42:45.199Z,16.29
2023-06-29T22:45:13.351Z,16.28
2023-06-29T22:47:41.113Z,16.15
2023-06-29T22:50:09.088Z,16.01
2023-06-29T22:52:37.038Z,15.85
2023-06-29T22:55:05.351Z,15.99
2023-06-29T22:57:33.049Z,16.33
2023-06-29T23:00:00.835Z,16.30
2023-06-29T23:02:28.431Z,16.23
2023-06-29T23:04:56.432Z,16.12
2023-06-29T23:07:24.305Z,15.88
2023-06-29T23:09:52.008Z,15.65
2023-06-29T23:12:22.591Z,15.80
2023-06-29T23:14:52.659Z,16.11
2023-06-29T23:17:26.272Z,16.16
2023-06-29T23:19:54.194Z,16.05
2023-06-29T23:22:24.623Z,15.87
2023-06-29T23:24:54.152Z,15.73
2023-06-29T23:27:21.962Z,15.57
2023-06-29T23:29:50.932Z,15.70
2023-06-29T23:32:19.026Z,15.98
2023-06-29T23:34:46.647Z,16.03
2023-06-29T23:37:14.474Z,16.01
2023-06-29T23:39:42.314Z,15.80
2023-06-29T23:42:10.354Z,15.65
2023-06-29T23:44:42.048Z,15.51
2023-06-29T23:47:11.562Z,15.64
2023-06-29T23:49:39.887Z,15.84
2023-06-29T23:52:10.975Z,15.91
2023-06-29T23:54:39.709Z,15.88
2023-06-29T23:57:07.791Z,15.72
2023-06-29T23:59:35.618Z,15.54
